Copper Center, AK (99573)

12:13 AM AKST on February 08, 2016 (GMT -0900)
Klutina River | | Change Station
CLOSE
Current Station
Personal Weather Station
Location: Copper Center, AK
Elevation: 1100 ft
Nearby Weather Stations

Elev 1100 ft 61.95 °N, 145.32 °W | Updated 47 seconds ago

Clear
Clear
3.0 °F
Feels Like 3 °F
N
0.0
Wind Variable Wind from NW
Gusts 1.0 mph

Today
High -- | Low -- °F
--% Chance of Precip.
Yesterday
High -- | Low -- °F
Precip. -- in
Pressure 30.02 in
Visibility 10.0 miles
Clouds Clear
Windchill 3 °F
Dew Point 1 °F
Humidity 92%
Rainfall 0.00 in
Snow Depth Not available.
8:47 AM 5:04 PM
Waning Crescent, 0% visible
METAR PAGK 080853Z AUTO 01006KT 10SM CLR M13/M15 A2986 RMK AO2 SLP166 T11281150 411061200 51007 TSNO $
Pressure 30.02 in
Visibility 10.0 miles
Clouds Clear
Windchill 3 °F
Dew Point 1 °F
Humidity 92%
Rainfall 0.00 in
Snow Depth Not available.
8:47 AM 5:04 PM
Waning Crescent, 0% visible
METAR PAGK 080853Z AUTO 01006KT 10SM CLR M13/M15 A2986 RMK AO2 SLP166 T11281150 411061200 51007 TSNO $

10-Day Weather Forecast

Almanac

Astronomy

Feb. 08, 2016 Rise Set
Actual Time
Civil Twilight
Nautical Twilight
Astronomical Twilight
Moon
Length of Visible Light
Length of Day
Tomorrow will be .
, % of the Moon is Illuminated

Today's Extremes

State Highs State Lows

Community

WunderPhotos

Upload Photos

1,891,412 photos uploaded!

WunderBlog® & News

Nearby

Air Quality

  Air Quality AQ Index Pollutant
Not available.

Snow Depth

Station Depth Elevation

Earthquake Activity

City Distance Mag. Time & Date
Minimum magnitude displayed is 2.5.

Coastal Water Temperatures

Place Temperature

Stations

Nearby Weather Stations

Station Location Temp. Windchill Dew Point Humidity Wind Precip. Elev Updated Type
                   

Watches & Warnings

There are currently no watches in effect.